Time;durP1;ratioP1;P1;durP2;ratioP2;P2;SDS_P1;SDS_P2;PMS_P1;PMS_P2;Temp;Humidity;BMP_temperature;BMP_pressure;BME280_temperature;BME280_humidity;BME280_pressure;Samples;Min_cycle;Max_cycle;Signal;HPM_P1;HPM_P2
2022/06/05 00:00:22;;;;;;;9.82;8.27;;;;;;;17.09;78.25;100777.56;5013002;28;20161;-78
2022/06/05 00:03:42;;;;;;;7.10;4.95;;;;;;;16.98;78.85;100787.28;5010597;28;20064;-78
2022/06/05 00:06:54;;;;;;;13.15;7.90;;;;;;;16.92;79.25;100810.56;5013243;28;20092;-78
2022/06/05 00:10:29;;;;;;;9.85;7.38;;;;;;;17.17;77.69;100814.00;5000882;28;20068;-78
2022/06/05 00:13:52;;;;;;;12.38;7.15;;;;;;;16.97;78.68;100820.75;5013153;28;20528;-78
2022/06/05 00:16:55;;;;;;;;;;;;;;;16.96;78.29;100832.28;5013557;28;20056;-78
2022/06/05 00:19:59;;;;;;;10.25;5.57;;;;;;;17.09;77.70;100832.22;5013021;28;19923;-78
2022/06/05 00:23:04;;;;;;;8.15;4.88;;;;;;;17.17;77.50;100849.19;5013182;28;20056;-78
2022/06/05 00:26:40;;;;;;;5.00;4.13;;;;;;;16.99;78.29;100855.00;5000387;28;20072;-78
2022/06/05 00:29:47;;;;;;;6.47;3.92;;;;;;;17.07;77.75;100853.50;5000954;28;20617;-78
2022/06/05 00:33:05;;;;;;;6.88;4.45;;;;;;;17.04;78.07;100848.44;5013535;28;20057;-78
2022/06/05 00:36:34;;;;;;;4.68;4.03;;;;;;;16.94;78.80;100842.13;5013076;28;20068;-78
2022/06/05 00:39:53;;;;;;;5.88;4.63;;;;;;;16.80;79.50;100839.66;5014267;28;20053;-77
2022/06/05 00:43:04;;;;;;;4.72;4.22;;;;;;;16.83;79.12;100818.31;5013489;28;20412;-78
2022/06/05 00:46:08;;;;;;;9.00;5.80;;;;;;;16.60;80.27;100827.91;5014232;28;20040;-78
2022/06/05 00:49:12;;;;;;;6.72;4.25;;;;;;;16.82;79.16;100824.56;5012877;28;20052;-78
2022/06/05 00:52:15;;;;;;;7.50;4.80;;;;;;;16.85;78.49;100827.81;5012447;28;20100;-78
2022/06/05 00:55:20;;;;;;;7.00;4.63;;;;;;;16.73;78.42;100836.59;5012216;28;20453;-78
2022/06/05 00:58:24;;;;;;;7.05;4.53;;;;;;;16.55;79.35;100841.41;5012080;28;20076;-78
2022/06/05 01:01:27;;;;;;;5.47;4.70;;;;;;;16.50;79.82;100833.00;5012076;28;20563;-78
2022/06/05 01:04:34;;;;;;;7.45;5.40;;;;;;;16.46;79.88;100831.50;5011747;28;20065;-78
2022/06/05 01:07:37;;;;;;;5.63;4.85;;;;;;;16.57;79.23;100823.69;5012097;28;20056;-78
2022/06/05 01:11:03;;;;;;;5.90;4.93;;;;;;;16.55;79.52;100808.91;5012390;28;20068;-78
2022/06/05 01:14:33;;;;;;;6.70;6.07;;;;;;;16.46;79.45;100806.00;5012364;28;20048;-78
2022/06/05 01:17:47;;;;;;;7.93;4.90;;;;;;;16.35;80.08;100807.72;5015892;28;20092;-78
2022/06/05 01:21:24;;;;;;;7.97;4.40;;;;;;;16.60;79.26;100806.78;5016465;28;20413;-77
2022/06/05 01:25:12;;;;;;;9.43;4.82;;;;;;;16.45;79.37;100799.00;5016054;28;20133;-77
2022/06/05 01:28:24;;;;;;;5.68;4.47;;;;;;;16.37;79.34;100793.44;5008586;28;20091;-77
2022/06/05 01:31:39;;;;;;;6.13;4.47;;;;;;;16.27;79.71;100789.75;5015793;28;20418;-77
2022/06/05 01:38:29;;;;;;;7.35;5.03;;;;;;;16.45;79.21;100785.81;5015556;28;20253;-77
2022/06/05 01:41:39;;;;;;;6.80;4.80;;;;;;;16.36;79.34;100768.00;5015716;28;20048;-77
2022/06/05 01:44:47;;;;;;;5.75;4.65;;;;;;;16.19;79.85;100756.03;5003948;28;20409;-77
2022/06/05 01:47:56;;;;;;;8.95;4.88;;;;;;;16.11;80.00;100747.81;5015663;28;20092;-77
2022/06/05 01:51:06;;;;;;;6.38;4.28;;;;;;;16.23;79.76;100751.38;5015852;28;20085;-77
2022/06/05 01:54:18;;;;;;;6.65;4.75;;;;;;;16.09;80.01;100743.63;5015442;28;20041;-78
2022/06/05 01:57:26;;;;;;;6.68;5.10;;;;;;;15.98;80.47;100731.19;5015538;28;20087;-77
2022/06/05 02:00:31;;;;;;;7.55;5.07;;;;;;;15.97;80.49;100714.53;5015789;28;20048;-77
2022/06/05 02:03:39;;;;;;;5.35;4.60;;;;;;;16.10;80.08;100700.47;5015373;28;20112;-78
2022/06/05 02:06:53;;;;;;;9.73;4.57;;;;;;;16.06;79.80;100680.53;5015226;28;20104;-77
2022/06/05 02:10:13;;;;;;;5.72;4.00;;;;;;;16.00;80.04;100664.19;5015485;28;20112;-77
2022/06/05 02:13:16;;;;;;;5.50;4.90;;;;;;;16.08;79.49;100652.25;5015498;28;20044;-77
2022/06/05 02:16:21;;;;;;;7.60;4.70;;;;;;;15.92;80.50;100647.25;5015238;28;20064;-77
2022/06/05 02:19:26;;;;;;;8.38;5.10;;;;;;;15.94;80.52;100629.53;5015407;28;20120;-77
2022/06/05 02:22:36;;;;;;;5.22;4.72;;;;;;;15.78;80.99;100608.69;5015213;28;20056;-77
2022/06/05 02:25:41;;;;;;;6.00;4.38;;;;;;;15.77;80.76;100601.75;5014651;28;20052;-77
2022/06/05 02:28:45;;;;;;;4.72;3.70;;;;;;;15.88;80.15;100593.88;5014677;28;20065;-77
2022/06/05 02:32:14;;;;;;;4.53;3.95;;;;;;;15.80;80.28;100588.34;5014902;28;20040;-77
2022/06/05 02:35:24;;;;;;;4.07;3.22;;;;;;;15.96;79.24;100581.00;4999391;28;20057;-77
2022/06/05 02:38:35;;;;;;;5.18;4.18;;;;;;;16.02;79.18;100570.00;5015096;28;20077;-77
2022/06/05 02:41:45;;;;;;;5.82;4.30;;;;;;;15.89;79.73;100558.69;5014737;28;20500;-77
2022/06/05 02:45:07;;;;;;;5.03;4.30;;;;;;;15.81;80.33;100551.31;5014614;28;20041;-77
2022/06/05 02:48:28;;;;;;;7.95;4.72;;;;;;;15.68;80.53;100547.91;4991353;28;20108;-77
2022/06/05 02:51:36;;;;;;;7.60;4.40;;;;;;;15.59;81.16;100536.19;5014557;28;20104;-77
2022/06/05 02:54:47;;;;;;;7.15;4.65;;;;;;;15.67;80.63;100529.56;5014320;28;20053;-77
2022/06/05 02:57:52;;;;;;;7.07;5.53;;;;;;;15.55;81.13;100533.91;5014601;28;20112;-77
2022/06/05 03:04:18;;;;;;;6.18;5.13;;;;;;;15.45;81.70;100536.38;5014026;28;20045;-77
2022/06/05 03:07:22;;;;;;;4.97;4.50;;;;;;;15.47;81.83;100537.09;5013256;28;20103;-77
2022/06/05 03:10:27;;;;;;;5.03;4.13;;;;;;;15.71;80.59;100534.50;5014215;28;20049;-77
2022/06/05 03:13:30;;;;;;;5.10;4.57;;;;;;;15.81;79.20;100530.22;5014433;28;20044;-77
2022/06/05 03:16:34;;;;;;;7.47;5.00;;;;;;;15.63;80.43;100531.53;5014009;28;20065;-77
2022/06/05 03:19:37;;;;;;;7.32;4.10;;;;;;;15.65;80.80;100523.53;5014055;28;20057;-77
2022/06/05 03:22:42;;;;;;;6.95;4.40;;;;;;;15.56;80.86;100517.97;5013817;28;20409;-77
2022/06/05 03:25:45;;;;;;;7.20;4.90;;;;;;;15.35;81.50;100516.91;5014384;28;20049;-77
2022/06/05 03:28:49;;;;;;;4.75;4.25;;;;;;;15.44;81.65;100516.22;5014123;28;20104;-77
2022/06/05 03:31:53;;;;;;;5.30;4.55;;;;;;;15.61;80.36;100514.19;5013718;28;20503;-77
2022/06/05 03:34:57;;;;;;;8.50;4.40;;;;;;;15.43;81.22;100519.81;5013342;28;20100;-77
2022/06/05 03:38:00;;;;;;;5.63;4.95;;;;;;;15.47;80.94;100531.81;5012942;28;20044;-77
2022/06/05 03:41:10;;;;;;;8.35;4.50;;;;;;;15.39;81.41;100550.00;5013683;28;20512;-77
2022/06/05 03:44:14;;;;;;;9.90;4.60;;;;;;;15.42;81.48;100562.09;5001799;28;20457;-77
2022/06/05 03:47:17;;;;;;;5.00;4.30;;;;;;;15.08;83.27;100567.97;5012865;28;20405;-77
2022/06/05 03:50:22;;;;;;;6.07;5.13;;;;;;;15.41;82.07;100579.72;5013409;28;20077;-77
2022/06/05 03:53:25;;;;;;;7.30;4.38;;;;;;;15.29;83.11;100584.06;5013208;28;20049;-77
2022/06/05 03:56:33;;;;;;;4.88;3.90;;;;;;;15.63;82.01;100589.53;5013490;28;20049;-77
2022/06/05 03:59:37;;;;;;;5.97;4.80;;;;;;;15.68;81.79;100603.25;5013216;28;20527;-77
2022/06/05 04:02:41;;;;;;;6.95;4.30;;;;;;;15.61;82.23;100598.53;5012958;28;20123;-77
2022/06/05 04:05:45;;;;;;;5.97;4.63;;;;;;;15.55;82.52;100592.72;5001445;28;20084;-77
2022/06/05 04:08:50;;;;;;;4.90;3.97;;;;;;;15.70;82.08;100608.44;5013303;28;20460;-77
2022/06/05 04:11:54;;;;;;;5.07;4.32;;;;;;;15.77;81.72;100607.88;5012906;28;20048;-77
2022/06/05 04:15:00;;;;;;;6.28;4.28;;;;;;;15.93;80.96;100609.38;5000859;28;20117;-77
2022/06/05 04:18:03;;;;;;;6.95;5.03;;;;;;;15.75;81.75;100630.84;5012655;28;20143;-77
2022/06/05 04:21:13;;;;;;;7.25;4.95;;;;;;;15.83;82.10;100654.03;5013143;28;20053;-77
2022/06/05 04:24:17;;;;;;;9.75;5.40;;;;;;;15.76;81.83;100650.13;5008621;28;20092;-77
2022/06/05 04:27:20;;;;;;;5.85;4.97;;;;;;;15.90;81.89;100650.00;5012758;28;20405;-77
2022/06/05 04:30:26;;;;;;;4.63;3.95;;;;;;;16.11;81.58;100646.75;5012752;28;20069;-77
2022/06/05 04:33:32;;;;;;;5.63;4.10;;;;;;;16.13;81.35;100645.69;5012775;28;20049;-77
2022/06/05 04:36:35;;;;;;;5.20;4.70;;;;;;;16.00;81.99;100660.72;5012396;28;20049;-77
2022/06/05 04:39:39;;;;;;;5.90;4.18;;;;;;;16.11;81.65;100678.38;5013110;28;20540;-77
2022/06/05 04:42:42;;;;;;;5.97;4.18;;;;;;;16.01;81.68;100671.16;5012077;28;20053;-77
2022/06/05 04:45:46;;;;;;;6.35;4.45;;;;;;;16.19;81.49;100655.78;5000101;28;20044;-77
2022/06/05 04:48:50;;;;;;;6.30;4.43;;;;;;;16.16;82.42;100663.09;5012411;28;20048;-77
2022/06/05 04:51:53;;;;;;;8.20;3.97;;;;;;;16.12;82.03;100673.03;5012124;28;20072;-77
2022/06/05 04:54:58;;;;;;;5.88;4.95;;;;;;;16.06;82.01;100673.47;5010611;28;20049;-77
2022/06/05 04:58:02;;;;;;;5.68;4.05;;;;;;;16.27;80.83;100674.53;5000062;28;20049;-78
2022/06/05 05:01:11;;;;;;;6.00;4.80;;;;;;;16.20;81.68;100678.56;5011917;28;20105;-77
2022/06/05 05:04:15;;;;;;;7.85;4.32;;;;;;;16.14;82.27;100670.25;5012584;28;20108;-78
2022/06/05 05:07:19;;;;;;;6.15;4.80;;;;;;;16.08;82.09;100657.50;5012100;28;20148;-78
2022/06/05 05:10:22;;;;;;;7.75;4.43;;;;;;;16.09;82.29;100653.94;5012315;28;20076;-78
2022/06/05 05:13:30;;;;;;;5.55;4.70;;;;;;;16.08;82.17;100646.97;5012416;28;20045;-78
2022/06/05 05:16:35;;;;;;;5.90;5.05;;;;;;;16.08;81.79;100636.41;5012115;28;20508;-78
2022/06/05 05:19:40;;;;;;;7.93;4.72;;;;;;;16.06;82.33;100643.63;5012419;28;20065;-78
2022/06/05 05:22:44;;;;;;;5.78;4.15;;;;;;;15.95;82.80;100637.34;5012209;28;20049;-78
2022/06/05 05:25:48;;;;;;;5.30;4.80;;;;;;;16.20;81.17;100622.31;5012306;28;20092;-78
2022/06/05 05:28:53;;;;;;;7.15;4.28;;;;;;;16.11;82.38;100621.19;5012335;28;20132;-78
2022/06/05 05:31:57;;;;;;;5.68;4.45;;;;;;;16.12;82.03;100614.16;5012048;28;20401;-78
2022/06/05 05:35:02;;;;;;;6.68;4.32;;;;;;;16.27;81.52;100618.25;5011589;28;20133;-78
2022/06/05 05:38:06;;;;;;;7.10;4.80;;;;;;;16.34;81.50;100614.22;5011866;28;20405;-78
2022/06/05 05:44:51;;;;;;;6.38;4.35;;;;;;;16.22;82.50;100594.03;4972147;28;20050;-77
2022/06/05 05:47:55;;;;;;;6.00;4.82;;;;;;;16.34;81.92;100605.47;5012066;28;20084;-78
2022/06/05 05:50:58;;;;;;;8.23;4.93;;;;;;;16.24;82.42;100594.75;5011863;28;20045;-78
2022/06/05 05:54:03;;;;;;;5.10;4.60;;;;;;;16.28;82.23;100585.66;5012038;28;20467;-78
2022/06/05 05:57:08;;;;;;;7.60;4.47;;;;;;;16.31;82.49;100579.31;5012174;28;20045;-78
2022/06/05 06:00:16;;;;;;;6.88;4.13;;;;;;;16.32;82.66;100570.44;5012146;28;20056;-78
2022/06/05 06:03:20;;;;;;;4.78;4.28;;;;;;;16.32;82.92;100555.44;5016004;28;20040;-78
2022/06/05 06:06:32;;;;;;;6.35;4.32;;;;;;;16.36;83.01;100556.88;5016714;28;20112;-78
2022/06/05 06:09:39;;;;;;;7.17;4.93;;;;;;;16.26;83.23;100554.09;5017011;28;20107;-78
2022/06/05 06:12:43;;;;;;;4.47;4.07;;;;;;;15.89;84.70;100537.59;5003956;28;20060;-78
2022/06/05 06:15:47;;;;;;;4.05;3.65;;;;;;;16.18;84.13;100538.03;5015816;28;20057;-78
2022/06/05 06:18:51;;;;;;;4.93;4.43;;;;;;;16.48;82.22;100534.00;4653929;28;10000194;-78
2022/06/05 06:21:54;;;;;;;4.75;4.25;;;;;;;16.60;81.98;100525.16;4995634;28;20564;-78
2022/06/05 06:24:58;;;;;;;5.10;4.60;;;;;;;16.51;82.79;100524.03;4995598;28;20073;-78
2022/06/05 06:28:01;;;;;;;7.50;4.68;;;;;;;16.65;82.56;100509.78;4997783;28;20036;-78
2022/06/05 06:31:07;;;;;;;8.05;4.10;;;;;;;16.77;81.94;100502.72;5014237;28;20037;-77
2022/06/05 06:34:11;;;;;;;6.07;4.68;;;;;;;16.78;82.21;100500.94;5013592;28;20065;-77
2022/06/05 06:37:16;;;;;;;6.32;4.60;;;;;;;17.02;80.78;100479.66;5014984;28;20044;-77
2022/06/05 06:40:20;;;;;;;6.03;4.28;;;;;;;17.14;80.96;100457.56;5014269;28;20084;-78
2022/06/05 06:43:24;;;;;;;5.47;4.97;;;;;;;17.03;82.79;100433.78;5014589;28;20564;-78
2022/06/05 06:46:31;;;;;;;6.70;5.20;;;;;;;16.99;83.29;100430.56;5015045;28;20531;-78
2022/06/05 06:49:35;;;;;;;6.95;5.03;;;;;;;17.02;83.52;100442.69;5014934;28;20096;-78
2022/06/05 06:52:41;;;;;;;5.97;4.38;;;;;;;16.74;85.21;100444.84;5000658;28;20049;-79
2022/06/05 06:55:45;;;;;;;5.05;4.55;;;;;;;16.84;85.41;100459.03;5014377;28;20044;-78
2022/06/05 06:58:49;;;;;;;7.97;5.47;;;;;;;16.92;84.82;100446.06;5014436;28;20080;-79
2022/06/05 07:01:53;;;;;;;11.38;4.88;;;;;;;16.96;84.52;100452.78;5014482;28;20092;-77
2022/06/05 07:04:58;;;;;;;5.43;4.82;;;;;;;17.27;83.66;100441.53;4995000;28;20081;-76
2022/06/05 07:08:06;;;;;;;5.43;4.35;;;;;;;17.41;80.99;100449.16;4994205;28;20420;-77
2022/06/05 07:11:15;;;;;;;7.25;5.20;;;;;;;17.50;81.17;100437.84;4994634;28;20045;-77
2022/06/05 07:14:18;;;;;;;6.78;4.65;;;;;;;17.65;80.56;100430.44;4994248;28;20041;-77
2022/06/05 07:17:22;;;;;;;8.77;4.75;;;;;;;17.65;79.37;100433.94;4994685;28;20557;-77
2022/06/05 07:20:27;;;;;;;9.45;4.88;;;;;;;17.82;78.42;100435.19;4994594;28;20041;-77
2022/06/05 07:23:30;;;;;;;5.35;4.57;;;;;;;17.78;79.31;100440.88;4995398;28;20408;-79
2022/06/05 07:26:34;;;;;;;6.65;5.05;;;;;;;17.71;81.11;100445.81;4982740;28;20049;-76
2022/06/05 07:29:38;;;;;;;5.35;4.85;;;;;;;17.70;80.95;100446.75;4993923;28;20045;-76
2022/06/05 07:32:42;;;;;;;6.43;4.97;;;;;;;17.88;79.99;100450.53;4994480;28;20049;-76
2022/06/05 07:35:57;;;;;;;5.95;4.90;;;;;;;18.30;79.11;100453.16;4994746;28;20112;-77
2022/06/05 07:39:02;;;;;;;5.47;4.93;;;;;;;18.24;77.42;100458.13;4995395;28;20390;-79
2022/06/05 07:42:06;;;;;;;6.32;4.60;;;;;;;18.46;77.50;100450.03;4995393;28;20496;-79
2022/06/05 07:45:16;;;;;;;9.05;5.20;;;;;;;18.34;77.26;100437.84;4994983;28;20391;-79
2022/06/05 07:48:20;;;;;;;4.82;4.32;;;;;;;18.60;76.80;100448.81;5010830;28;20049;-79
2022/06/05 07:54:56;;;;;;;6.22;4.80;;;;;;;18.73;79.04;100459.19;5013328;28;20049;-77
2022/06/05 07:58:01;;;;;;;6.88;5.00;;;;;;;18.70;78.05;100464.78;5014501;28;20096;-77
2022/06/05 08:01:07;;;;;;;6.43;4.68;;;;;;;18.70;77.98;100470.91;5014215;28;20104;-77
2022/06/05 08:04:12;;;;;;;10.40;5.60;;;;;;;18.64;78.24;100473.25;5014553;28;20103;-77
2022/06/05 08:07:22;;;;;;;7.07;5.05;;;;;;;18.58;79.54;100470.16;5014250;28;20036;-77
2022/06/05 08:10:25;;;;;;;5.97;5.10;;;;;;;18.46;81.49;100478.31;5014057;28;20048;-78
2022/06/05 08:13:29;;;;;;;6.45;4.82;;;;;;;18.32;82.44;100477.69;5014244;28;20615;-78
2022/06/05 08:16:46;;;;;;;;;;;;;;;;;;;;;
2022/06/05 08:20:08;;;;;;;5.63;5.03;;;;;;;18.20;84.66;100477.91;5014175;28;20572;-79
2022/06/05 08:23:13;;;;;;;6.07;4.88;;;;;;;18.26;84.26;100482.66;5014020;28;20052;-78
2022/06/05 08:26:23;;;;;;;8.07;5.35;;;;;;;18.39;84.09;100479.81;5003005;28;20401;-78
2022/06/05 08:29:26;;;;;;;6.00;5.40;;;;;;;18.42;84.22;100484.84;5013969;28;20053;-78
2022/06/05 08:32:31;;;;;;;6.00;5.00;;;;;;;18.40;83.93;100487.59;5014207;28;20049;-78
2022/06/05 08:35:36;;;;;;;9.00;5.40;;;;;;;18.40;84.49;100498.19;5014520;28;20080;-79
2022/06/05 08:42:16;;;;;;;7.35;6.65;;;;;;;18.13;86.50;100504.03;5013040;28;20045;-78
2022/06/05 08:45:44;;;;;;;9.43;5.80;;;;;;;18.34;85.33;100507.50;5012207;28;20173;-80
2022/06/05 08:49:39;;;;;;;6.20;5.40;;;;;;;18.16;85.77;100509.06;5013446;28;20617;-77
2022/06/05 08:53:13;;;;;;;8.60;5.38;;;;;;;18.56;84.98;100495.06;5013594;28;20040;-76
2022/06/05 08:56:33;;;;;;;6.43;5.63;;;;;;;18.68;84.01;100490.53;5018628;28;20052;-79
2022/06/05 09:00:41;;;;;;;5.68;5.18;;;;;;;18.62;84.77;100478.66;5012611;28;20088;-76
2022/06/05 09:09:05;;;;;;;8.95;5.03;;;;;;;18.78;83.18;100479.03;5012057;28;20045;-78
2022/06/05 09:12:22;;;;;;;6.00;5.40;;;;;;;18.72;82.22;100468.97;5013496;28;20045;-77
2022/06/05 09:15:27;;;;;;;5.80;5.28;;;;;;;18.85;82.11;100474.03;5012410;28;20057;-78
2022/06/05 09:18:37;;;;;;;7.60;5.70;;;;;;;18.99;83.00;100481.63;5012658;28;20100;-77
2022/06/05 09:21:59;;;;;;;8.63;5.63;;;;;;;19.11;83.09;100490.28;5012140;28;20040;-90
2022/06/05 09:25:26;;;;;;;7.60;6.70;;;;;;;19.14;84.10;100487.34;5012404;28;20049;-77
2022/06/05 09:28:55;;;;;;;7.95;5.38;;;;;;;19.23;81.88;100472.44;5013244;28;20093;-77
2022/06/05 09:32:16;;;;;;;6.50;5.90;;;;;;;19.26;82.26;100467.69;5013072;28;20045;-84
2022/06/05 09:35:34;;;;;;;7.68;5.93;;;;;;;19.33;82.30;100465.34;5013286;28;20513;-90
2022/06/05 09:39:32;;;;;;;8.25;6.70;;;;;;;19.37;83.22;100457.94;5017606;28;20500;-82
2022/06/05 09:43:01;;;;;;;7.78;6.20;;;;;;;19.37;83.47;100453.50;5016167;28;20040;-79
2022/06/05 09:46:35;;;;;;;6.50;5.90;;;;;;;19.29;83.33;100451.53;5015690;28;20045;-79
2022/06/05 09:49:58;;;;;;;7.30;6.10;;;;;;;19.42;82.04;100450.41;5016048;28;20049;-78
2022/06/05 09:53:03;;;;;;;9.30;6.20;;;;;;;19.60;81.31;100443.44;5004344;28;20109;-78
2022/06/05 09:56:26;;;;;;;7.78;6.05;;;;;;;19.57;81.13;100429.63;5015645;28;20539;-79
2022/06/05 09:59:41;;;;;;;6.38;5.25;;;;;;;19.50;81.21;100432.84;5016065;28;20049;-79
2022/06/05 10:02:50;;;;;;;7.03;5.82;;;;;;;19.36;80.98;100419.16;5015531;28;20044;-79
2022/06/05 10:06:18;;;;;;;5.93;5.32;;;;;;;19.35;80.16;100422.78;5014976;28;20049;-79
2022/06/05 10:09:28;;;;;;;6.40;5.63;;;;;;;19.46;80.00;100406.72;5014813;28;20392;-79
2022/06/05 10:12:55;;;;;;;5.80;5.20;;;;;;;19.53;79.09;100405.22;5015987;28;20059;-79
2022/06/05 10:16:07;;;;;;;5.82;5.05;;;;;;;19.45;78.76;100405.06;5015548;28;20053;-77
2022/06/05 10:19:39;;;;;;;6.03;5.13;;;;;;;19.45;78.41;100397.94;5015371;28;20044;-77
2022/06/05 10:22:49;;;;;;;6.60;5.05;;;;;;;19.41;79.14;100388.59;5015585;28;20056;-77
2022/06/05 10:26:07;;;;;;;7.40;6.53;;;;;;;19.46;79.50;100394.34;4991909;28;20041;-79
2022/06/05 10:29:28;;;;;;;9.05;6.80;;;;;;;19.48;79.98;100402.97;5015204;28;20088;-79
2022/06/05 10:32:53;;;;;;;7.22;5.78;;;;;;;19.68;78.91;100403.81;5015410;28;20093;-79
2022/06/05 10:36:22;;;;;;;6.50;5.72;;;;;;;19.61;78.11;100385.94;5001970;28;20058;-78
2022/06/05 10:39:55;;;;;;;7.05;5.75;;;;;;;19.58;78.32;100380.91;4983177;28;20052;-79
2022/06/05 10:43:26;;;;;;;7.80;5.60;;;;;;;19.60;77.96;100376.31;4983390;28;20048;-79
2022/06/05 10:46:34;;;;;;;5.78;5.18;;;;;;;19.75;78.07;100364.31;4995453;28;20057;-78
2022/06/05 10:50:19;;;;;;;7.63;6.05;;;;;;;19.86;77.74;100364.13;4995498;28;20095;-79
2022/06/05 10:53:46;;;;;;;7.47;5.38;;;;;;;19.80;77.22;100353.25;4994760;28;20041;-78
2022/06/05 10:57:38;;;;;;;10.07;5.38;;;;;;;19.86;76.09;100356.16;4993305;28;20122;-77
2022/06/05 11:00:52;;;;;;;8.07;5.40;;;;;;;19.94;76.12;100344.81;4984072;28;20149;-78
2022/06/05 11:04:22;;;;;;;12.35;5.82;;;;;;;19.96;75.55;100330.44;4970181;28;20516;-79
2022/06/05 11:07:57;;;;;;;7.15;5.50;;;;;;;20.08;75.76;100335.56;4982384;28;20065;-78
2022/06/05 11:14:53;;;;;;;5.90;5.40;;;;;;;19.94;74.87;100344.81;4982209;28;20049;-78
2022/06/05 11:18:38;;;;;;;7.72;5.40;;;;;;;19.96;74.27;100342.88;4981394;28;20104;-78
2022/06/05 11:21:47;;;;;;;7.00;5.65;;;;;;;19.95;74.72;100341.19;4968443;28;20525;-78
2022/06/05 11:24:56;;;;;;;6.45;5.80;;;;;;;19.98;74.83;100338.25;4983475;28;20144;-78
2022/06/05 11:28:22;;;;;;;7.07;5.60;;;;;;;20.03;75.63;100329.84;4983215;28;20046;-78
2022/06/05 11:31:59;;;;;;;10.13;5.32;;;;;;;20.20;74.86;100329.91;4972380;28;20046;-78
2022/06/05 11:35:11;;;;;;;7.88;5.45;;;;;;;20.20;75.05;100326.44;4976361;28;20144;-77
2022/06/05 11:38:42;;;;;;;5.97;5.10;;;;;;;20.14;74.39;100308.44;5008703;28;20127;-78
2022/06/05 11:42:02;;;;;;;9.13;5.57;;;;;;;20.18;74.21;100305.31;5012368;28;20100;-78
2022/06/05 11:45:44;;;;;;;7.85;5.55;;;;;;;20.31;74.62;100299.66;5011256;28;20040;-78
2022/06/05 11:49:05;;;;;;;5.43;4.90;;;;;;;20.20;75.33;100308.69;4993408;28;20398;-79
2022/06/05 11:52:21;;;;;;;8.45;5.38;;;;;;;20.26;74.35;100306.41;5004062;28;20064;-77
2022/06/05 11:55:31;;;;;;;5.55;5.05;;;;;;;20.19;75.92;100296.38;5010916;28;20045;-77
2022/06/05 11:58:55;;;;;;;5.95;5.35;;;;;;;20.14;75.18;100309.28;5004364;28;20120;-80
2022/06/05 12:02:08;;;;;;;7.47;5.93;;;;;;;20.15;76.19;100316.25;4999323;28;20089;-80
2022/06/05 12:05:36;;;;;;;7.18;5.57;;;;;;;20.01;77.13;100308.78;4993289;28;20037;-80
2022/06/05 12:08:47;;;;;;;6.50;5.75;;;;;;;20.02;76.98;100313.09;5004925;28;20056;-80
2022/06/05 12:11:57;;;;;;;10.40;7.97;;;;;;;19.97;77.85;100308.25;4997278;28;20036;-80
2022/06/05 12:15:14;;;;;;;9.00;8.10;;;;;;;19.95;80.05;100309.34;4998422;28;20041;-80
2022/06/05 12:18:26;;;;;;;18.60;13.63;;;;;;;19.81;80.86;100309.81;5013509;28;20048;-79
2022/06/05 12:21:43;;;;;;;26.33;23.63;;;;;;;19.86;81.46;100316.38;5014008;28;20100;-80
2022/06/05 12:25:02;;;;;;;7.10;6.40;;;;;;;19.84;82.50;100312.19;5005918;28;20065;-80
2022/06/05 12:28:12;;;;;;;12.75;10.70;;;;;;;19.78;82.32;100308.28;4977403;28;20093;-80
2022/06/05 12:31:23;;;;;;;8.98;8.07;;;;;;;19.77;83.03;100303.97;4988442;28;20041;-80
2022/06/05 12:34:38;;;;;;;14.70;10.48;;;;;;;19.69;83.03;100307.34;4991635;28;20033;-80
2022/06/05 12:38:19;;;;;;;12.30;8.68;;;;;;;19.59;84.04;100298.56;5002480;28;20448;-80
2022/06/05 12:41:46;;;;;;;8.15;7.03;;;;;;;19.57;84.29;100295.22;5017507;28;20106;-80
2022/06/05 12:45:20;;;;;;;10.10;6.40;;;;;;;19.76;83.17;100298.81;5015244;28;20041;-80
2022/06/05 12:48:30;;;;;;;13.32;8.93;;;;;;;19.78;82.88;100297.66;5000934;28;20107;-80
2022/06/05 12:51:34;;;;;;;11.48;7.63;;;;;;;19.84;84.26;100310.34;4993324;28;20132;-81
2022/06/05 12:54:44;;;;;;;13.32;7.07;;;;;;;19.93;83.10;100303.34;4997603;28;20561;-80
2022/06/05 12:58:10;;;;;;;7.43;5.82;;;;;;;19.99;82.44;100294.81;4993180;28;20060;-80
2022/06/05 13:01:27;;;;;;;6.72;6.13;;;;;;;19.94;79.37;100308.53;4995134;28;20049;-80
2022/06/05 13:04:43;;;;;;;10.98;6.10;;;;;;;20.02;79.90;100304.31;4992617;28;20053;-80
2022/06/05 13:08:08;;;;;;;8.25;6.80;;;;;;;19.93;80.00;100292.72;4992846;28;20561;-80
2022/06/05 13:11:13;;;;;;;7.43;6.72;;;;;;;20.14;79.29;100290.69;4980113;28;20065;-81
2022/06/05 13:14:52;;;;;;;6.50;5.88;;;;;;;20.30;78.23;100281.25;4992582;28;20049;-81
2022/06/05 13:18:01;;;;;;;11.05;6.85;;;;;;;20.50;77.04;100282.78;5011841;28;20157;-81
2022/06/05 13:21:33;;;;;;;6.55;5.95;;;;;;;20.26;77.24;100274.53;5010674;28;20040;-81
2022/06/05 13:24:40;;;;;;;7.22;5.63;;;;;;;20.36;76.66;100278.00;5012722;28;20119;-81
2022/06/05 13:28:02;;;;;;;7.32;6.32;;;;;;;20.31;77.34;100283.75;5011942;28;20062;-82
2022/06/05 13:31:32;;;;;;;7.65;6.10;;;;;;;20.33;77.47;100275.63;5012690;28;20068;-82
2022/06/05 13:35:08;;;;;;;9.15;7.00;;;;;;;20.35;76.75;100277.13;5013942;28;20140;-81
2022/06/05 13:38:48;;;;;;;8.00;6.50;;;;;;;20.35;77.08;100265.69;4993502;28;20104;-82
2022/06/05 13:42:11;;;;;;;12.68;6.68;;;;;;;20.29;77.50;100253.84;4993013;28;20197;-82
2022/06/05 13:46:08;;;;;;;9.98;6.78;;;;;;;20.30;78.11;100255.53;4992992;28;20516;-81
2022/06/05 13:49:25;;;;;;;6.88;6.15;;;;;;;20.39;78.14;100259.13;4980622;28;20509;-81
2022/06/05 13:52:46;;;;;;;10.82;6.45;;;;;;;20.38;77.71;100257.41;4991948;28;20041;-80
2022/06/05 13:56:03;;;;;;;7.78;5.75;;;;;;;20.45;79.34;100269.09;4975150;28;20495;-80
2022/06/05 13:59:38;;;;;;;6.90;5.97;;;;;;;20.49;78.82;100265.19;4992257;28;20057;-81
2022/06/05 14:03:19;;;;;;;8.52;6.05;;;;;;;20.60;81.60;100266.81;4992732;28;20080;-80
2022/06/05 14:06:41;;;;;;;7.10;6.40;;;;;;;21.54;79.17;100271.59;4992680;28;20081;-80
2022/06/05 14:10:17;;;;;;;8.85;6.80;;;;;;;22.13;77.50;100255.69;4993958;28;20092;-81
2022/06/05 14:13:24;;;;;;;6.53;5.90;;;;;;;22.86;73.76;100250.53;4992248;28;20061;-82
2022/06/05 14:16:53;;;;;;;11.52;6.50;;;;;;;23.54;71.68;100241.28;4990928;28;20544;-82
2022/06/05 14:20:12;;;;;;;9.40;7.30;;;;;;;25.13;64.66;100232.88;4992780;28;20069;-82
2022/06/05 14:23:24;;;;;;;8.75;7.80;;;;;;;23.75;67.00;100234.59;4976536;28;20074;-82
2022/06/05 14:26:51;;;;;;;7.60;6.85;;;;;;;23.77;67.42;100233.44;4984094;28;20092;-82
2022/06/05 14:30:00;;;;;;;7.35;6.65;;;;;;;22.63;73.18;100226.38;4993914;28;20120;-82
2022/06/05 14:33:08;;;;;;;10.48;8.07;;;;;;;21.94;76.49;100225.69;4994215;28;20069;-76
2022/06/05 14:36:34;;;;;;;11.82;9.00;;;;;;;21.79;76.54;100225.47;4976907;28;20097;-82
2022/06/05 14:39:39;;;;;;;8.75;7.85;;;;;;;21.55;76.76;100228.84;4932728;29;20044;-73
2022/06/05 14:42:52;;;;;;;8.30;7.53;;;;;;;21.02;78.39;100232.44;4936263;29;20051;-71
2022/06/05 14:46:12;;;;;;;8.77;7.75;;;;;;;20.98;80.50;100236.41;4936343;29;20589;-70
2022/06/05 14:49:32;;;;;;;9.48;8.40;;;;;;;20.84;82.42;100244.97;4937226;29;20054;-70
2022/06/05 14:52:42;;;;;;;8.52;7.82;;;;;;;20.77;83.85;100251.84;4936147;29;20114;-72
2022/06/05 14:59:26;;;;;;;10.30;8.60;;;;;;;20.76;86.79;100247.53;4936886;29;20525;-74
2022/06/05 15:02:35;;;;;;;9.25;8.40;;;;;;;20.82;85.67;100254.91;4936929;29;20074;-71
2022/06/05 15:05:45;;;;;;;9.27;8.48;;;;;;;20.83;85.72;100245.94;4925107;29;20099;-73
2022/06/05 15:09:17;;;;;;;9.68;8.88;;;;;;;20.84;86.17;100252.94;4936741;29;20470;-71
2022/06/05 15:12:30;;;;;;;11.35;10.15;;;;;;;20.79;87.85;100255.19;4936445;29;20099;-68
2022/06/05 15:15:36;;;;;;;11.63;9.23;;;;;;;20.74;87.79;100253.00;4936525;29;20127;-69
2022/06/05 15:18:40;;;;;;;10.20;9.20;;;;;;;20.64;87.89;100260.19;4936388;29;20055;-67
2022/06/05 15:21:47;;;;;;;10.80;9.80;;;;;;;20.44;88.90;100267.44;4935878;29;20050;-68
2022/06/05 15:24:59;;;;;;;10.82;9.38;;;;;;;20.60;88.46;100258.84;4936504;29;20123;-66
2022/06/05 15:28:15;;;;;;;11.38;9.30;;;;;;;20.49;88.81;100264.34;4936095;29;20081;-68
2022/06/05 15:31:28;;;;;;;9.15;8.35;;;;;;;20.57;87.36;100273.25;4935330;29;20054;-68